sensor_id;sensor_type;location;lat;lon;timestamp;P1;durP1;ratioP1;P2;durP2;ratioP2
82176;SDS011;71758;48.714;9.584;2023-08-17T00:01:45;5.03;;;3.28;;
82176;SDS011;71758;48.714;9.584;2023-08-17T00:04:11;5.50;;;2.97;;
82176;SDS011;71758;48.714;9.584;2023-08-17T00:06:36;4.78;;;2.50;;
82176;SDS011;71758;48.714;9.584;2023-08-17T00:09:01;4.65;;;2.60;;
82176;SDS011;71758;48.714;9.584;2023-08-17T00:11:28;5.47;;;2.45;;
82176;SDS011;71758;48.714;9.584;2023-08-17T00:13:54;5.70;;;2.53;;
82176;SDS011;71758;48.714;9.584;2023-08-17T00:16:19;5.13;;;2.50;;
82176;SDS011;71758;48.714;9.584;2023-08-17T00:18:45;6.20;;;2.97;;
82176;SDS011;71758;48.714;9.584;2023-08-17T00:21:10;6.60;;;2.53;;
82176;SDS011;71758;48.714;9.584;2023-08-17T00:23:35;5.38;;;3.00;;
82176;SDS011;71758;48.714;9.584;2023-08-17T00:26:01;6.00;;;2.50;;
82176;SDS011;71758;48.714;9.584;2023-08-17T00:28:26;5.78;;;2.75;;
82176;SDS011;71758;48.714;9.584;2023-08-17T00:30:53;5.80;;;2.50;;
82176;SDS011;71758;48.714;9.584;2023-08-17T00:33:18;6.88;;;2.50;;
82176;SDS011;71758;48.714;9.584;2023-08-17T00:35:43;5.88;;;3.08;;
82176;SDS011;71758;48.714;9.584;2023-08-17T00:38:10;4.50;;;2.67;;
82176;SDS011;71758;48.714;9.584;2023-08-17T00:40:36;5.15;;;2.85;;
82176;SDS011;71758;48.714;9.584;2023-08-17T00:43:01;8.20;;;2.90;;
82176;SDS011;71758;48.714;9.584;2023-08-17T00:45:27;5.03;;;2.80;;
82176;SDS011;71758;48.714;9.584;2023-08-17T00:47:54;6.75;;;2.83;;
82176;SDS011;71758;48.714;9.584;2023-08-17T00:50:22;7.32;;;2.78;;
82176;SDS011;71758;48.714;9.584;2023-08-17T00:52:48;4.90;;;2.70;;
82176;SDS011;71758;48.714;9.584;2023-08-17T00:55:13;5.57;;;2.63;;
82176;SDS011;71758;48.714;9.584;2023-08-17T00:57:39;7.43;;;2.83;;
82176;SDS011;71758;48.714;9.584;2023-08-17T01:00:06;7.28;;;2.90;;
82176;SDS011;71758;48.714;9.584;2023-08-17T01:02:32;4.40;;;2.38;;
82176;SDS011;71758;48.714;9.584;2023-08-17T01:04:58;5.78;;;2.78;;
82176;SDS011;71758;48.714;9.584;2023-08-17T01:07:23;5.95;;;2.90;;
82176;SDS011;71758;48.714;9.584;2023-08-17T01:09:48;5.43;;;3.15;;
82176;SDS011;71758;48.714;9.584;2023-08-17T01:12:19;6.90;;;3.25;;
82176;SDS011;71758;48.714;9.584;2023-08-17T01:14:56;5.47;;;2.83;;
82176;SDS011;71758;48.714;9.584;2023-08-17T01:17:25;7.97;;;3.10;;
82176;SDS011;71758;48.714;9.584;2023-08-17T01:19:54;5.90;;;2.60;;
82176;SDS011;71758;48.714;9.584;2023-08-17T01:22:21;4.55;;;2.80;;
82176;SDS011;71758;48.714;9.584;2023-08-17T01:24:47;7.60;;;2.70;;
82176;SDS011;71758;48.714;9.584;2023-08-17T01:27:13;6.40;;;3.13;;
82176;SDS011;71758;48.714;9.584;2023-08-17T01:29:38;5.53;;;3.22;;
82176;SDS011;71758;48.714;9.584;2023-08-17T01:32:04;5.93;;;2.92;;
82176;SDS011;71758;48.714;9.584;2023-08-17T01:34:44;5.78;;;2.70;;
82176;SDS011;71758;48.714;9.584;2023-08-17T01:37:33;5.40;;;3.00;;
82176;SDS011;71758;48.714;9.584;2023-08-17T01:39:59;7.97;;;3.22;;
82176;SDS011;71758;48.714;9.584;2023-08-17T01:42:25;6.35;;;3.38;;
82176;SDS011;71758;48.714;9.584;2023-08-17T01:44:50;5.55;;;3.20;;
82176;SDS011;71758;48.714;9.584;2023-08-17T01:47:19;4.55;;;2.67;;
82176;SDS011;71758;48.714;9.584;2023-08-17T01:49:46;7.10;;;3.58;;
82176;SDS011;71758;48.714;9.584;2023-08-17T01:52:11;4.90;;;3.17;;
82176;SDS011;71758;48.714;9.584;2023-08-17T01:54:37;7.25;;;3.50;;
82176;SDS011;71758;48.714;9.584;2023-08-17T01:57:02;6.32;;;2.67;;
82176;SDS011;71758;48.714;9.584;2023-08-17T01:59:27;6.75;;;2.75;;
82176;SDS011;71758;48.714;9.584;2023-08-17T02:01:53;6.78;;;3.10;;
82176;SDS011;71758;48.714;9.584;2023-08-17T02:04:18;7.28;;;3.30;;
82176;SDS011;71758;48.714;9.584;2023-08-17T02:06:43;6.53;;;3.60;;
82176;SDS011;71758;48.714;9.584;2023-08-17T02:09:09;6.40;;;3.08;;
82176;SDS011;71758;48.714;9.584;2023-08-17T02:11:34;7.38;;;3.03;;
82176;SDS011;71758;48.714;9.584;2023-08-17T02:13:59;4.93;;;2.97;;
82176;SDS011;71758;48.714;9.584;2023-08-17T02:16:25;6.03;;;3.03;;
82176;SDS011;71758;48.714;9.584;2023-08-17T02:18:50;7.28;;;3.70;;
82176;SDS011;71758;48.714;9.584;2023-08-17T02:21:16;6.38;;;3.50;;
82176;SDS011;71758;48.714;9.584;2023-08-17T02:23:41;9.30;;;3.50;;
82176;SDS011;71758;48.714;9.584;2023-08-17T02:26:06;6.78;;;3.20;;
82176;SDS011;71758;48.714;9.584;2023-08-17T02:28:32;7.25;;;3.72;;
82176;SDS011;71758;48.714;9.584;2023-08-17T02:30:57;7.35;;;3.42;;
82176;SDS011;71758;48.714;9.584;2023-08-17T02:33:23;8.65;;;4.13;;
82176;SDS011;71758;48.714;9.584;2023-08-17T02:35:49;7.10;;;3.80;;
82176;SDS011;71758;48.714;9.584;2023-08-17T02:38:15;5.93;;;3.20;;
82176;SDS011;71758;48.714;9.584;2023-08-17T02:40:40;6.75;;;3.20;;
82176;SDS011;71758;48.714;9.584;2023-08-17T02:43:05;7.05;;;3.60;;
82176;SDS011;71758;48.714;9.584;2023-08-17T02:45:31;6.82;;;3.97;;
82176;SDS011;71758;48.714;9.584;2023-08-17T02:47:56;6.22;;;3.40;;
82176;SDS011;71758;48.714;9.584;2023-08-17T02:50:21;6.93;;;3.80;;
82176;SDS011;71758;48.714;9.584;2023-08-17T02:52:47;7.25;;;3.55;;
82176;SDS011;71758;48.714;9.584;2023-08-17T02:55:12;7.13;;;3.60;;
82176;SDS011;71758;48.714;9.584;2023-08-17T02:57:37;6.68;;;3.13;;
82176;SDS011;71758;48.714;9.584;2023-08-17T03:00:03;10.02;;;3.97;;
82176;SDS011;71758;48.714;9.584;2023-08-17T03:02:29;6.68;;;3.50;;
82176;SDS011;71758;48.714;9.584;2023-08-17T03:04:54;6.15;;;3.42;;
82176;SDS011;71758;48.714;9.584;2023-08-17T03:07:19;8.63;;;3.85;;
82176;SDS011;71758;48.714;9.584;2023-08-17T03:09:45;8.13;;;3.50;;
82176;SDS011;71758;48.714;9.584;2023-08-17T03:12:10;8.55;;;3.40;;
82176;SDS011;71758;48.714;9.584;2023-08-17T03:14:35;6.47;;;3.35;;
82176;SDS011;71758;48.714;9.584;2023-08-17T03:17:01;7.25;;;3.60;;
82176;SDS011;71758;48.714;9.584;2023-08-17T03:19:26;11.55;;;3.70;;
82176;SDS011;71758;48.714;9.584;2023-08-17T03:21:51;8.95;;;3.40;;
82176;SDS011;71758;48.714;9.584;2023-08-17T03:24:17;7.60;;;3.97;;
82176;SDS011;71758;48.714;9.584;2023-08-17T03:26:42;7.88;;;3.75;;
82176;SDS011;71758;48.714;9.584;2023-08-17T03:29:07;8.10;;;3.95;;
82176;SDS011;71758;48.714;9.584;2023-08-17T03:31:34;7.55;;;4.30;;
82176;SDS011;71758;48.714;9.584;2023-08-17T03:34:00;6.93;;;3.80;;
82176;SDS011;71758;48.714;9.584;2023-08-17T03:36:26;7.00;;;3.28;;
82176;SDS011;71758;48.714;9.584;2023-08-17T03:38:51;8.45;;;3.60;;
82176;SDS011;71758;48.714;9.584;2023-08-17T03:41:16;9.25;;;3.58;;
82176;SDS011;71758;48.714;9.584;2023-08-17T03:43:42;8.32;;;3.58;;
82176;SDS011;71758;48.714;9.584;2023-08-17T03:46:07;7.40;;;3.13;;
82176;SDS011;71758;48.714;9.584;2023-08-17T03:48:33;6.22;;;3.53;;
82176;SDS011;71758;48.714;9.584;2023-08-17T03:50:58;6.20;;;3.30;;
82176;SDS011;71758;48.714;9.584;2023-08-17T03:53:23;6.82;;;3.70;;
82176;SDS011;71758;48.714;9.584;2023-08-17T03:55:49;8.15;;;3.33;;
82176;SDS011;71758;48.714;9.584;2023-08-17T03:58:15;7.03;;;3.92;;
82176;SDS011;71758;48.714;9.584;2023-08-17T04:00:40;5.78;;;3.50;;
82176;SDS011;71758;48.714;9.584;2023-08-17T04:03:07;5.78;;;3.40;;
82176;SDS011;71758;48.714;9.584;2023-08-17T04:05:32;5.90;;;3.55;;
82176;SDS011;71758;48.714;9.584;2023-08-17T04:07:58;6.07;;;2.80;;
82176;SDS011;71758;48.714;9.584;2023-08-17T04:10:27;7.53;;;3.55;;
82176;SDS011;71758;48.714;9.584;2023-08-17T04:12:53;6.07;;;3.40;;
82176;SDS011;71758;48.714;9.584;2023-08-17T04:15:18;6.63;;;3.40;;
82176;SDS011;71758;48.714;9.584;2023-08-17T04:17:44;8.02;;;3.45;;
82176;SDS011;71758;48.714;9.584;2023-08-17T04:20:09;6.50;;;3.75;;
82176;SDS011;71758;48.714;9.584;2023-08-17T04:22:35;7.43;;;3.58;;
82176;SDS011;71758;48.714;9.584;2023-08-17T04:25:00;7.68;;;3.60;;
82176;SDS011;71758;48.714;9.584;2023-08-17T04:27:26;7.40;;;3.42;;
82176;SDS011;71758;48.714;9.584;2023-08-17T04:29:51;7.13;;;3.65;;
82176;SDS011;71758;48.714;9.584;2023-08-17T04:32:16;11.05;;;4.30;;
82176;SDS011;71758;48.714;9.584;2023-08-17T04:34:42;11.80;;;4.43;;
82176;SDS011;71758;48.714;9.584;2023-08-17T04:37:08;12.75;;;4.45;;
82176;SDS011;71758;48.714;9.584;2023-08-17T04:39:34;13.07;;;4.90;;
82176;SDS011;71758;48.714;9.584;2023-08-17T04:41:59;17.52;;;6.80;;
82176;SDS011;71758;48.714;9.584;2023-08-17T04:44:24;13.68;;;5.18;;
82176;SDS011;71758;48.714;9.584;2023-08-17T04:46:50;12.90;;;5.50;;
82176;SDS011;71758;48.714;9.584;2023-08-17T04:49:15;13.65;;;6.10;;
82176;SDS011;71758;48.714;9.584;2023-08-17T04:51:40;21.35;;;7.93;;
82176;SDS011;71758;48.714;9.584;2023-08-17T04:54:06;24.27;;;8.48;;
82176;SDS011;71758;48.714;9.584;2023-08-17T04:56:31;21.08;;;8.25;;
82176;SDS011;71758;48.714;9.584;2023-08-17T04:58:57;20.10;;;8.45;;
82176;SDS011;71758;48.714;9.584;2023-08-17T05:01:22;19.42;;;7.95;;
82176;SDS011;71758;48.714;9.584;2023-08-17T05:03:47;17.48;;;7.45;;
82176;SDS011;71758;48.714;9.584;2023-08-17T05:06:13;20.38;;;7.70;;
82176;SDS011;71758;48.714;9.584;2023-08-17T05:08:38;23.40;;;8.10;;
82176;SDS011;71758;48.714;9.584;2023-08-17T05:11:04;22.27;;;8.80;;
82176;SDS011;71758;48.714;9.584;2023-08-17T05:13:29;24.02;;;9.43;;
82176;SDS011;71758;48.714;9.584;2023-08-17T05:15:54;25.65;;;9.13;;
82176;SDS011;71758;48.714;9.584;2023-08-17T05:18:20;25.65;;;9.48;;
82176;SDS011;71758;48.714;9.584;2023-08-17T05:20:46;28.38;;;10.70;;
82176;SDS011;71758;48.714;9.584;2023-08-17T05:23:11;43.13;;;11.05;;
82176;SDS011;71758;48.714;9.584;2023-08-17T05:25:37;21.88;;;8.82;;
82176;SDS011;71758;48.714;9.584;2023-08-17T05:28:02;29.23;;;10.07;;
82176;SDS011;71758;48.714;9.584;2023-08-17T05:30:28;35.70;;;9.88;;
82176;SDS011;71758;48.714;9.584;2023-08-17T05:32:53;22.17;;;9.80;;
82176;SDS011;71758;48.714;9.584;2023-08-17T05:35:18;28.85;;;10.02;;
82176;SDS011;71758;48.714;9.584;2023-08-17T05:37:44;30.10;;;11.07;;
82176;SDS011;71758;48.714;9.584;2023-08-17T05:40:09;25.52;;;11.65;;
82176;SDS011;71758;48.714;9.584;2023-08-17T05:42:35;26.52;;;11.50;;
82176;SDS011;71758;48.714;9.584;2023-08-17T05:45:01;34.85;;;13.13;;
82176;SDS011;71758;48.714;9.584;2023-08-17T05:47:26;28.27;;;12.90;;
82176;SDS011;71758;48.714;9.584;2023-08-17T05:49:51;23.27;;;11.90;;
82176;SDS011;71758;48.714;9.584;2023-08-17T05:52:17;24.33;;;13.25;;
82176;SDS011;71758;48.714;9.584;2023-08-17T05:54:42;22.52;;;12.35;;
82176;SDS011;71758;48.714;9.584;2023-08-17T05:57:08;18.77;;;11.80;;
82176;SDS011;71758;48.714;9.584;2023-08-17T05:59:33;21.10;;;11.48;;
82176;SDS011;71758;48.714;9.584;2023-08-17T06:01:58;22.55;;;11.48;;
82176;SDS011;71758;48.714;9.584;2023-08-17T06:04:24;19.73;;;11.90;;
82176;SDS011;71758;48.714;9.584;2023-08-17T06:06:49;25.13;;;12.95;;
82176;SDS011;71758;48.714;9.584;2023-08-17T06:09:15;19.88;;;12.55;;
82176;SDS011;71758;48.714;9.584;2023-08-17T06:11:40;21.55;;;12.35;;
82176;SDS011;71758;48.714;9.584;2023-08-17T06:14:06;20.48;;;12.77;;
82176;SDS011;71758;48.714;9.584;2023-08-17T06:16:31;18.48;;;12.00;;
82176;SDS011;71758;48.714;9.584;2023-08-17T06:18:57;20.50;;;11.60;;
82176;SDS011;71758;48.714;9.584;2023-08-17T06:21:22;15.40;;;10.75;;
82176;SDS011;71758;48.714;9.584;2023-08-17T06:23:48;15.65;;;9.25;;
82176;SDS011;71758;48.714;9.584;2023-08-17T06:26:13;19.25;;;11.95;;
82176;SDS011;71758;48.714;9.584;2023-08-17T06:28:39;19.25;;;11.77;;
82176;SDS011;71758;48.714;9.584;2023-08-17T06:31:04;24.17;;;12.38;;
82176;SDS011;71758;48.714;9.584;2023-08-17T06:33:29;19.40;;;12.70;;
82176;SDS011;71758;48.714;9.584;2023-08-17T06:35:55;20.75;;;12.43;;
82176;SDS011;71758;48.714;9.584;2023-08-17T06:38:20;22.52;;;12.50;;
82176;SDS011;71758;48.714;9.584;2023-08-17T06:40:45;17.73;;;11.82;;
82176;SDS011;71758;48.714;9.584;2023-08-17T06:43:11;16.90;;;10.80;;
82176;SDS011;71758;48.714;9.584;2023-08-17T06:45:37;18.08;;;11.20;;
82176;SDS011;71758;48.714;9.584;2023-08-17T06:48:03;16.42;;;10.52;;
82176;SDS011;71758;48.714;9.584;2023-08-17T06:50:28;16.70;;;11.10;;
82176;SDS011;71758;48.714;9.584;2023-08-17T06:52:54;19.65;;;11.20;;
82176;SDS011;71758;48.714;9.584;2023-08-17T06:55:19;19.55;;;11.23;;
82176;SDS011;71758;48.714;9.584;2023-08-17T06:57:44;21.33;;;12.30;;
82176;SDS011;71758;48.714;9.584;2023-08-17T07:00:11;16.55;;;10.98;;
82176;SDS011;71758;48.714;9.584;2023-08-17T07:02:37;21.00;;;12.95;;
82176;SDS011;71758;48.714;9.584;2023-08-17T07:05:02;20.80;;;12.48;;
82176;SDS011;71758;48.714;9.584;2023-08-17T07:07:31;21.73;;;12.48;;
82176;SDS011;71758;48.714;9.584;2023-08-17T07:09:57;17.90;;;11.52;;
82176;SDS011;71758;48.714;9.584;2023-08-17T07:12:22;21.73;;;12.77;;
82176;SDS011;71758;48.714;9.584;2023-08-17T07:14:49;21.02;;;12.55;;
82176;SDS011;71758;48.714;9.584;2023-08-17T07:17:14;21.00;;;12.13;;
82176;SDS011;71758;48.714;9.584;2023-08-17T07:19:40;20.45;;;12.20;;
82176;SDS011;71758;48.714;9.584;2023-08-17T07:22:06;19.42;;;12.40;;
82176;SDS011;71758;48.714;9.584;2023-08-17T07:24:31;21.33;;;11.65;;
82176;SDS011;71758;48.714;9.584;2023-08-17T07:26:56;16.65;;;11.18;;
82176;SDS011;71758;48.714;9.584;2023-08-17T07:29:22;17.65;;;11.65;;
82176;SDS011;71758;48.714;9.584;2023-08-17T07:31:48;19.15;;;11.77;;
82176;SDS011;71758;48.714;9.584;2023-08-17T07:34:13;19.15;;;12.02;;
82176;SDS011;71758;48.714;9.584;2023-08-17T07:36:38;18.73;;;11.68;;
82176;SDS011;71758;48.714;9.584;2023-08-17T07:39:04;18.92;;;11.10;;
82176;SDS011;71758;48.714;9.584;2023-08-17T07:41:29;18.35;;;11.13;;
82176;SDS011;71758;48.714;9.584;2023-08-17T07:43:55;17.65;;;11.02;;
82176;SDS011;71758;48.714;9.584;2023-08-17T07:46:20;20.67;;;11.77;;
82176;SDS011;71758;48.714;9.584;2023-08-17T07:48:46;18.88;;;12.07;;
82176;SDS011;71758;48.714;9.584;2023-08-17T07:51:11;17.52;;;11.48;;
82176;SDS011;71758;48.714;9.584;2023-08-17T07:53:37;17.48;;;11.35;;
82176;SDS011;71758;48.714;9.584;2023-08-17T07:56:02;19.42;;;11.68;;
82176;SDS011;71758;48.714;9.584;2023-08-17T07:58:28;18.05;;;12.00;;
82176;SDS011;71758;48.714;9.584;2023-08-17T08:00:53;18.33;;;12.95;;
82176;SDS011;71758;48.714;9.584;2023-08-17T08:03:18;17.50;;;11.85;;
82176;SDS011;71758;48.714;9.584;2023-08-17T08:05:44;18.40;;;11.55;;
82176;SDS011;71758;48.714;9.584;2023-08-17T08:08:09;15.88;;;11.57;;
82176;SDS011;71758;48.714;9.584;2023-08-17T08:10:34;17.20;;;11.75;;
82176;SDS011;71758;48.714;9.584;2023-08-17T08:13:00;18.98;;;12.63;;
82176;SDS011;71758;48.714;9.584;2023-08-17T08:15:25;18.98;;;12.23;;
82176;SDS011;71758;48.714;9.584;2023-08-17T08:17:51;18.42;;;10.57;;
82176;SDS011;71758;48.714;9.584;2023-08-17T08:20:16;18.33;;;11.30;;
82176;SDS011;71758;48.714;9.584;2023-08-17T08:22:41;17.00;;;11.38;;
82176;SDS011;71758;48.714;9.584;2023-08-17T08:25:07;18.05;;;11.48;;
82176;SDS011;71758;48.714;9.584;2023-08-17T08:27:32;17.23;;;10.30;;
82176;SDS011;71758;48.714;9.584;2023-08-17T08:29:58;13.80;;;10.02;;
82176;SDS011;71758;48.714;9.584;2023-08-17T08:32:23;15.95;;;9.98;;
82176;SDS011;71758;48.714;9.584;2023-08-17T08:34:48;14.43;;;9.30;;
82176;SDS011;71758;48.714;9.584;2023-08-17T08:37:14;13.63;;;9.20;;
82176;SDS011;71758;48.714;9.584;2023-08-17T08:39:50;13.00;;;8.93;;
82176;SDS011;71758;48.714;9.584;2023-08-17T08:42:16;14.60;;;9.73;;
82176;SDS011;71758;48.714;9.584;2023-08-17T08:44:42;12.40;;;8.55;;
82176;SDS011;71758;48.714;9.584;2023-08-17T08:47:07;13.38;;;7.82;;
82176;SDS011;71758;48.714;9.584;2023-08-17T08:49:33;12.18;;;8.23;;
82176;SDS011;71758;48.714;9.584;2023-08-17T08:52:07;12.82;;;8.30;;
82176;SDS011;71758;48.714;9.584;2023-08-17T08:54:32;12.20;;;8.10;;
82176;SDS011;71758;48.714;9.584;2023-08-17T08:57:01;12.82;;;8.95;;
82176;SDS011;71758;48.714;9.584;2023-08-17T08:59:29;16.13;;;9.23;;
82176;SDS011;71758;48.714;9.584;2023-08-17T09:01:57;12.55;;;9.55;;
82176;SDS011;71758;48.714;9.584;2023-08-17T09:04:23;14.95;;;8.77;;
82176;SDS011;71758;48.714;9.584;2023-08-17T09:06:49;12.07;;;7.63;;
82176;SDS011;71758;48.714;9.584;2023-08-17T09:09:15;10.95;;;7.35;;
82176;SDS011;71758;48.714;9.584;2023-08-17T09:11:42;16.23;;;8.15;;
82176;SDS011;71758;48.714;9.584;2023-08-17T09:14:07;12.70;;;7.70;;
82176;SDS011;71758;48.714;9.584;2023-08-17T09:16:33;12.07;;;7.13;;
82176;SDS011;71758;48.714;9.584;2023-08-17T09:18:58;12.73;;;7.55;;
82176;SDS011;71758;48.714;9.584;2023-08-17T09:21:24;12.50;;;6.47;;
82176;SDS011;71758;48.714;9.584;2023-08-17T09:23:56;14.23;;;8.15;;
82176;SDS011;71758;48.714;9.584;2023-08-17T09:26:21;11.45;;;6.80;;
82176;SDS011;71758;48.714;9.584;2023-08-17T09:28:48;12.43;;;6.80;;
82176;SDS011;71758;48.714;9.584;2023-08-17T09:31:14;11.07;;;7.28;;
82176;SDS011;71758;48.714;9.584;2023-08-17T09:33:40;10.90;;;6.95;;
82176;SDS011;71758;48.714;9.584;2023-08-17T09:36:05;10.25;;;6.75;;
82176;SDS011;71758;48.714;9.584;2023-08-17T09:38:30;14.10;;;7.93;;
82176;SDS011;71758;48.714;9.584;2023-08-17T09:40:58;13.60;;;6.53;;
82176;SDS011;71758;48.714;9.584;2023-08-17T09:43:24;9.35;;;6.63;;
82176;SDS011;71758;48.714;9.584;2023-08-17T09:45:53;12.70;;;7.10;;
82176;SDS011;71758;48.714;9.584;2023-08-17T09:48:19;11.18;;;7.13;;
82176;SDS011;71758;48.714;9.584;2023-08-17T09:50:47;12.82;;;6.90;;
82176;SDS011;71758;48.714;9.584;2023-08-17T09:53:17;13.88;;;6.03;;
82176;SDS011;71758;48.714;9.584;2023-08-17T09:55:46;9.73;;;7.35;;
82176;SDS011;71758;48.714;9.584;2023-08-17T09:58:12;11.45;;;6.68;;
82176;SDS011;71758;48.714;9.584;2023-08-17T10:00:44;11.18;;;7.85;;
82176;SDS011;71758;48.714;9.584;2023-08-17T10:03:11;8.82;;;6.32;;
82176;SDS011;71758;48.714;9.584;2023-08-17T10:05:39;8.90;;;6.35;;
82176;SDS011;71758;48.714;9.584;2023-08-17T10:08:05;9.60;;;6.15;;
82176;SDS011;71758;48.714;9.584;2023-08-17T10:10:32;8.98;;;6.05;;
82176;SDS011;71758;48.714;9.584;2023-08-17T10:15:41;11.20;;;6.53;;
82176;SDS011;71758;48.714;9.584;2023-08-17T10:18:53;9.57;;;6.30;;
82176;SDS011;71758;48.714;9.584;2023-08-17T10:21:27;9.50;;;6.35;;
82176;SDS011;71758;48.714;9.584;2023-08-17T10:23:55;12.82;;;7.65;;
82176;SDS011;71758;48.714;9.584;2023-08-17T10:26:21;12.13;;;7.25;;
82176;SDS011;71758;48.714;9.584;2023-08-17T10:28:47;10.82;;;6.90;;
82176;SDS011;71758;48.714;9.584;2023-08-17T10:31:13;7.60;;;5.28;;
82176;SDS011;71758;48.714;9.584;2023-08-17T10:33:38;9.13;;;5.85;;
82176;SDS011;71758;48.714;9.584;2023-08-17T10:36:06;7.60;;;4.97;;
82176;SDS011;71758;48.714;9.584;2023-08-17T10:38:32;8.23;;;5.05;;
82176;SDS011;71758;48.714;9.584;2023-08-17T10:41:07;8.10;;;5.70;;
82176;SDS011;71758;48.714;9.584;2023-08-17T10:43:34;8.30;;;5.68;;
82176;SDS011;71758;48.714;9.584;2023-08-17T10:47:00;8.18;;;5.10;;
82176;SDS011;71758;48.714;9.584;2023-08-17T10:49:00;9.77;;;5.78;;
82176;SDS011;71758;48.714;9.584;2023-08-17T10:51:28;8.85;;;5.15;;
82176;SDS011;71758;48.714;9.584;2023-08-17T10:53:53;8.90;;;5.10;;
82176;SDS011;71758;48.714;9.584;2023-08-17T10:56:18;9.38;;;4.90;;
82176;SDS011;71758;48.714;9.584;2023-08-17T10:58:44;8.98;;;5.60;;
82176;SDS011;71758;48.714;9.584;2023-08-17T11:01:09;7.85;;;4.70;;
82176;SDS011;71758;48.714;9.584;2023-08-17T11:03:35;6.88;;;4.65;;
82176;SDS011;71758;48.714;9.584;2023-08-17T11:06:14;8.05;;;4.82;;
82176;SDS011;71758;48.714;9.584;2023-08-17T11:08:52;5.93;;;4.38;;
82176;SDS011;71758;48.714;9.584;2023-08-17T11:11:20;6.85;;;4.78;;
82176;SDS011;71758;48.714;9.584;2023-08-17T11:13:47;8.30;;;4.55;;
82176;SDS011;71758;48.714;9.584;2023-08-17T11:16:13;8.95;;;4.75;;
82176;SDS011;71758;48.714;9.584;2023-08-17T11:18:40;7.20;;;4.00;;
82176;SDS011;71758;48.714;9.584;2023-08-17T11:21:09;8.48;;;5.13;;
82176;SDS011;71758;48.714;9.584;2023-08-17T11:23:36;6.15;;;3.92;;
82176;SDS011;71758;48.714;9.584;2023-08-17T11:26:02;9.20;;;4.45;;
82176;SDS011;71758;48.714;9.584;2023-08-17T11:28:29;6.88;;;4.20;;
82176;SDS011;71758;48.714;9.584;2023-08-17T11:31:01;5.53;;;3.97;;
82176;SDS011;71758;48.714;9.584;2023-08-17T11:33:28;9.15;;;4.15;;
82176;SDS011;71758;48.714;9.584;2023-08-17T11:35:55;5.82;;;4.10;;
82176;SDS011;71758;48.714;9.584;2023-08-17T11:38:21;7.18;;;4.30;;
82176;SDS011;71758;48.714;9.584;2023-08-17T11:40:47;9.60;;;4.10;;
82176;SDS011;71758;48.714;9.584;2023-08-17T11:43:13;6.82;;;4.40;;
82176;SDS011;71758;48.714;9.584;2023-08-17T11:45:38;7.30;;;4.75;;
82176;SDS011;71758;48.714;9.584;2023-08-17T11:48:04;8.13;;;4.93;;
82176;SDS011;71758;48.714;9.584;2023-08-17T11:50:30;8.80;;;4.30;;
82176;SDS011;71758;48.714;9.584;2023-08-17T11:52:55;7.68;;;4.45;;
82176;SDS011;71758;48.714;9.584;2023-08-17T11:55:24;7.43;;;4.13;;
82176;SDS011;71758;48.714;9.584;2023-08-17T11:57:49;8.07;;;4.75;;
82176;SDS011;71758;48.714;9.584;2023-08-17T12:00:18;6.32;;;4.10;;
82176;SDS011;71758;48.714;9.584;2023-08-17T12:02:51;8.13;;;4.45;;
82176;SDS011;71758;48.714;9.584;2023-08-17T12:05:23;7.97;;;4.70;;
82176;SDS011;71758;48.714;9.584;2023-08-17T12:07:50;7.53;;;4.32;;
82176;SDS011;71758;48.714;9.584;2023-08-17T12:10:17;8.15;;;4.00;;
82176;SDS011;71758;48.714;9.584;2023-08-17T12:12:43;6.47;;;4.35;;
82176;SDS011;71758;48.714;9.584;2023-08-17T12:15:09;6.25;;;3.97;;
82176;SDS011;71758;48.714;9.584;2023-08-17T12:17:35;7.45;;;4.20;;
82176;SDS011;71758;48.714;9.584;2023-08-17T12:20:01;7.75;;;3.92;;
82176;SDS011;71758;48.714;9.584;2023-08-17T12:22:26;7.63;;;3.58;;
82176;SDS011;71758;48.714;9.584;2023-08-17T12:24:52;11.77;;;4.32;;
82176;SDS011;71758;48.714;9.584;2023-08-17T12:27:17;5.93;;;3.53;;
82176;SDS011;71758;48.714;9.584;2023-08-17T12:29:50;5.72;;;3.60;;
82176;SDS011;71758;48.714;9.584;2023-08-17T12:32:17;7.35;;;4.32;;
82176;SDS011;71758;48.714;9.584;2023-08-17T12:34:43;8.10;;;4.00;;
82176;SDS011;71758;48.714;9.584;2023-08-17T12:37:11;11.80;;;4.75;;
82176;SDS011;71758;48.714;9.584;2023-08-17T12:39:37;9.65;;;4.07;;
82176;SDS011;71758;48.714;9.584;2023-08-17T12:42:03;6.95;;;4.05;;
82176;SDS011;71758;48.714;9.584;2023-08-17T12:44:29;5.97;;;4.13;;
82176;SDS011;71758;48.714;9.584;2023-08-17T12:46:55;6.15;;;3.55;;
82176;SDS011;71758;48.714;9.584;2023-08-17T12:49:20;6.50;;;3.85;;
82176;SDS011;71758;48.714;9.584;2023-08-17T12:51:45;6.25;;;3.83;;
82176;SDS011;71758;48.714;9.584;2023-08-17T12:54:11;8.55;;;4.30;;
82176;SDS011;71758;48.714;9.584;2023-08-17T12:56:36;6.63;;;3.83;;
82176;SDS011;71758;48.714;9.584;2023-08-17T12:59:01;7.60;;;4.18;;
82176;SDS011;71758;48.714;9.584;2023-08-17T13:01:27;7.20;;;3.85;;
82176;SDS011;71758;48.714;9.584;2023-08-17T13:03:52;7.20;;;4.53;;
82176;SDS011;71758;48.714;9.584;2023-08-17T13:06:18;7.78;;;4.75;;
82176;SDS011;71758;48.714;9.584;2023-08-17T13:08:43;7.97;;;4.90;;
82176;SDS011;71758;48.714;9.584;2023-08-17T13:11:10;7.05;;;4.45;;
82176;SDS011;71758;48.714;9.584;2023-08-17T13:13:35;9.45;;;4.90;;
82176;SDS011;71758;48.714;9.584;2023-08-17T13:16:01;7.47;;;4.63;;
82176;SDS011;71758;48.714;9.584;2023-08-17T13:18:26;5.82;;;4.32;;
82176;SDS011;71758;48.714;9.584;2023-08-17T13:20:53;6.95;;;5.15;;
82176;SDS011;71758;48.714;9.584;2023-08-17T13:23:19;10.25;;;4.70;;
82176;SDS011;71758;48.714;9.584;2023-08-17T13:25:44;9.23;;;4.90;;
82176;SDS011;71758;48.714;9.584;2023-08-17T13:28:09;6.63;;;4.55;;
82176;SDS011;71758;48.714;9.584;2023-08-17T13:30:35;9.00;;;5.07;;
82176;SDS011;71758;48.714;9.584;2023-08-17T13:33:00;8.27;;;5.07;;
82176;SDS011;71758;48.714;9.584;2023-08-17T13:35:26;7.93;;;5.03;;
82176;SDS011;71758;48.714;9.584;2023-08-17T13:37:52;9.50;;;6.03;;
82176;SDS011;71758;48.714;9.584;2023-08-17T13:40:18;8.32;;;6.00;;
82176;SDS011;71758;48.714;9.584;2023-08-17T13:42:44;7.45;;;5.47;;
82176;SDS011;71758;48.714;9.584;2023-08-17T13:45:09;12.15;;;5.60;;
82176;SDS011;71758;48.714;9.584;2023-08-17T13:47:34;9.80;;;5.22;;
82176;SDS011;71758;48.714;9.584;2023-08-17T13:50:00;7.45;;;5.40;;
82176;SDS011;71758;48.714;9.584;2023-08-17T13:52:25;7.50;;;5.88;;
82176;SDS011;71758;48.714;9.584;2023-08-17T13:54:51;15.15;;;6.45;;
82176;SDS011;71758;48.714;9.584;2023-08-17T13:57:16;9.50;;;6.40;;
82176;SDS011;71758;48.714;9.584;2023-08-17T13:59:41;8.70;;;6.60;;
82176;SDS011;71758;48.714;9.584;2023-08-17T14:02:07;9.57;;;6.18;;
82176;SDS011;71758;48.714;9.584;2023-08-17T14:04:33;9.68;;;6.80;;
82176;SDS011;71758;48.714;9.584;2023-08-17T14:06:58;10.27;;;6.78;;
82176;SDS011;71758;48.714;9.584;2023-08-17T14:09:24;9.90;;;6.15;;
82176;SDS011;71758;48.714;9.584;2023-08-17T14:11:49;8.85;;;6.15;;
82176;SDS011;71758;48.714;9.584;2023-08-17T14:14:14;9.93;;;6.45;;
82176;SDS011;71758;48.714;9.584;2023-08-17T14:16:41;10.93;;;6.13;;
82176;SDS011;71758;48.714;9.584;2023-08-17T14:19:07;12.60;;;6.95;;
82176;SDS011;71758;48.714;9.584;2023-08-17T14:21:32;12.32;;;7.25;;
82176;SDS011;71758;48.714;9.584;2023-08-17T14:23:58;14.68;;;7.78;;
82176;SDS011;71758;48.714;9.584;2023-08-17T14:26:23;11.20;;;7.82;;
82176;SDS011;71758;48.714;9.584;2023-08-17T14:28:48;13.65;;;7.18;;
82176;SDS011;71758;48.714;9.584;2023-08-17T14:31:14;11.52;;;7.55;;
82176;SDS011;71758;48.714;9.584;2023-08-17T14:36:08;11.50;;;7.43;;
82176;SDS011;71758;48.714;9.584;2023-08-17T14:38:33;11.70;;;8.82;;